<?xml version="1.0" encoding="utf-8"?>
<gpx xmlns:xsi="http://www.w3.org/2001/XMLSchema-instance" xmlns:xsd="http://www.w3.org/2001/XMLSchema" version="1.1" creator="Shapelink.com" xmlns="http://www.topografix.com/GPX/1/1" xmlns:gpxtpx="http://www.garmin.com/xmlschemas/TrackPointExtension/v1">
  <metadata>
    <name>Övrigt 1.26 km, 2019-08-05</name>
    <desc></desc>
    <author><name>Marian Moron</name></author> 
    <time>2019-08-05T20:26:44Z</time>
  </metadata>
  <trk>
    <name>Övrigt 1.26 km, 2019-08-05</name>
    <trkseg>
      <trkpt lat="51.22992301938" lon="4.458165726371">
        <ele>6.6</ele>
        <time>2019-08-05T20:26:44Z</time>
      </trkpt>
      <trkpt lat="51.229985967449" lon="4.458580211326">
        <ele>6.2</ele>
        <time>2019-08-05T20:27:32Z</time>
      </trkpt>
      <trkpt lat="51.229986386544" lon="4.458842816253">
        <ele>4.6</ele>
        <time>2019-08-05T20:27:42Z</time>
      </trkpt>
      <trkpt lat="51.230072468657" lon="4.458990421512">
        <ele>3</ele>
        <time>2019-08-05T20:27:53Z</time>
      </trkpt>
      <trkpt lat="51.230182942099" lon="4.458980949965">
        <ele>2</ele>
        <time>2019-08-05T20:28:03Z</time>
      </trkpt>
      <trkpt lat="51.230389723572" lon="4.459081532765">
        <ele>0</ele>
        <time>2019-08-05T20:28:30Z</time>
      </trkpt>
      <trkpt lat="51.230547135654" lon="4.459768597108">
        <ele>6</ele>
        <time>2019-08-05T20:29:36Z</time>
      </trkpt>
      <trkpt lat="51.230560546694" lon="4.459839843258">
        <ele>6.2</ele>
        <time>2019-08-05T20:29:41Z</time>
      </trkpt>
      <trkpt lat="51.230573957734" lon="4.459906898458">
        <ele>6.8</ele>
        <time>2019-08-05T20:29:49Z</time>
      </trkpt>
      <trkpt lat="51.230666242453" lon="4.46012214565">
        <ele>3.6</ele>
        <time>2019-08-05T20:30:24Z</time>
      </trkpt>
      <trkpt lat="51.230655178345" lon="4.460387600423">
        <ele>1.6</ele>
        <time>2019-08-05T20:30:43Z</time>
      </trkpt>
      <trkpt lat="51.230673031792" lon="4.460713488695">
        <ele>1.8</ele>
        <time>2019-08-05T20:31:09Z</time>
      </trkpt>
      <trkpt lat="51.230607401515" lon="4.460756404023">
        <ele>3.6</ele>
        <time>2019-08-05T20:31:42Z</time>
      </trkpt>
      <trkpt lat="51.230153102535" lon="4.460838965738">
        <ele>4.6</ele>
        <time>2019-08-05T20:32:10Z</time>
      </trkpt>
      <trkpt lat="51.23014262516" lon="4.460845335982">
        <ele>4.2</ele>
        <time>2019-08-05T20:32:11Z</time>
      </trkpt>
      <trkpt lat="51.230094177778" lon="4.460895962658">
        <ele>2.2</ele>
        <time>2019-08-05T20:32:19Z</time>
      </trkpt>
      <trkpt lat="51.229961240844" lon="4.460937453063">
        <ele>0</ele>
        <time>2019-08-05T20:32:33Z</time>
      </trkpt>
      <trkpt lat="51.22979309993" lon="4.461037281492">
        <ele>0</ele>
        <time>2019-08-05T20:32:47Z</time>
      </trkpt>
      <trkpt lat="51.229752363896" lon="4.461155801558">
        <ele>3</ele>
        <time>2019-08-05T20:33:10Z</time>
      </trkpt>
      <trkpt lat="51.229740880693" lon="4.461211457374">
        <ele>5.6</ele>
        <time>2019-08-05T20:33:15Z</time>
      </trkpt>
      <trkpt lat="51.229761416348" lon="4.461312878364">
        <ele>3.2</ele>
        <time>2019-08-05T20:33:35Z</time>
      </trkpt>
      <trkpt lat="51.229786142953" lon="4.461401055952">
        <ele>4</ele>
        <time>2019-08-05T20:33:42Z</time>
      </trkpt>
      <trkpt lat="51.229838026914" lon="4.461555366731">
        <ele>6.2</ele>
        <time>2019-08-05T20:34:00Z</time>
      </trkpt>
      <trkpt lat="51.229885468468" lon="4.461889217808">
        <ele>7.2</ele>
        <time>2019-08-05T20:34:19Z</time>
      </trkpt>
      <trkpt lat="51.230053525563" lon="4.46237520037">
        <ele>11</ele>
        <time>2019-08-05T20:34:50Z</time>
      </trkpt>
      <trkpt lat="51.230128459749" lon="4.462627160284">
        <ele>5.8</ele>
        <time>2019-08-05T20:35:16Z</time>
      </trkpt>
      <trkpt lat="51.230216218242" lon="4.462899236758">
        <ele>4.2</ele>
        <time>2019-08-05T20:35:34Z</time>
      </trkpt>
      <trkpt lat="51.229866441555" lon="4.46301054839">
        <ele>0</ele>
        <time>2019-08-05T20:37:17Z</time>
      </trkpt>
      <trkpt lat="51.22971682464" lon="4.463013398236">
        <ele>0</ele>
        <time>2019-08-05T20:37:30Z</time>
      </trkpt>
      <trkpt lat="51.229490848616" lon="4.463046842017">
        <ele>0</ele>
        <time>2019-08-05T20:38:38Z</time>
      </trkpt>
      <trkpt lat="51.229127074156" lon="4.463173324888">
        <ele>22.8</ele>
        <time>2019-08-05T20:39:42Z</time>
      </trkpt>
      <trkpt lat="51.229064796639" lon="4.463088583879">
        <ele>28.8</ele>
        <time>2019-08-05T20:40:15Z</time>
      </trkpt>
      <trkpt lat="51.229077369489" lon="4.463058828134">
        <ele>28.8</ele>
        <time>2019-08-05T20:40:17Z</time>
      </trkpt>
      <trkpt lat="51.229073681453" lon="4.462956485135">
        <ele>25.8</ele>
        <time>2019-08-05T20:40:24Z</time>
      </trkpt>
      <trkpt lat="51.229068736132" lon="4.462647947396">
        <ele>17.8</ele>
        <time>2019-08-05T20:40:41Z</time>
      </trkpt>
      <trkpt lat="51.229104275388" lon="4.46218912219">
        <ele>8.8</ele>
        <time>2019-08-05T20:41:09Z</time>
      </trkpt>
      <trkpt lat="51.229079213507" lon="4.461852588905">
        <ele>0</ele>
        <time>2019-08-05T20:41:43Z</time>
      </trkpt>
      <trkpt lat="51.229067730304" lon="4.461804979713">
        <ele>0</ele>
        <time>2019-08-05T20:41:48Z</time>
      </trkpt>
      <trkpt lat="51.228994640136" lon="4.461699954506">
        <ele>2.2</ele>
        <time>2019-08-05T20:42:00Z</time>
      </trkpt>
      <trkpt lat="51.228647126562" lon="4.461373228044">
        <ele>3.8</ele>
        <time>2019-08-05T20:43:40Z</time>
      </trkpt>
      <trkpt lat="51.228563810476" lon="4.461300054057">
        <ele>5</ele>
        <time>2019-08-05T20:43:59Z</time>
      </trkpt>
      <trkpt lat="51.228520056958" lon="4.461175499023">
        <ele>2.8</ele>
        <time>2019-08-05T20:44:11Z</time>
      </trkpt>
      <trkpt lat="51.228452498844" lon="4.461104755787">
        <ele>2</ele>
        <time>2019-08-05T20:44:21Z</time>
      </trkpt>
      <trkpt lat="51.228422743099" lon="4.4610734913">
        <ele>0.8</ele>
        <time>2019-08-05T20:44:27Z</time>
      </trkpt>
      <trkpt lat="51.228335990434" lon="4.460828069268">
        <ele>0</ele>
        <time>2019-08-05T20:44:53Z</time>
      </trkpt>
      <trkpt lat="51.228335990434" lon="4.460608882583">
        <ele>0</ele>
        <time>2019-08-05T20:45:35Z</time>
      </trkpt>
      <trkpt lat="51.228113534808" lon="4.460525231221">
        <ele>10.2</ele>
        <time>2019-08-05T20:45:54Z</time>
      </trkpt>
      <trkpt lat="51.228085455443" lon="4.460499666426">
        <ele>11.8</ele>
        <time>2019-08-05T20:45:57Z</time>
      </trkpt>
      <trkpt lat="51.228317969349" lon="4.460160618571">
        <ele>17.8</ele>
        <time>2019-08-05T20:46:39Z</time>
      </trkpt>
      <trkpt lat="51.228496671457" lon="4.459652340155">
        <ele>8</ele>
        <time>2019-08-05T20:47:14Z</time>
      </trkpt>
      <trkpt lat="51.228587698891" lon="4.458971897513">
        <ele>3</ele>
        <time>2019-08-05T20:48:00Z</time>
      </trkpt>
      <trkpt lat="51.228562301734" lon="4.458849354135">
        <ele>5.8</ele>
        <time>2019-08-05T20:48:10Z</time>
      </trkpt>
      <trkpt lat="51.228601026112" lon="4.458494799765">
        <ele>10.6</ele>
        <time>2019-08-05T20:48:29Z</time>
      </trkpt>
      <trkpt lat="51.228600942293" lon="4.458472252454">
        <ele>10.6</ele>
        <time>2019-08-05T20:48:31Z</time>
      </trkpt>
      <trkpt lat="51.228576215688" lon="4.458298914762">
        <ele>0.4</ele>
        <time>2019-08-05T20:48:43Z</time>
      </trkpt>
      <trkpt lat="51.229022887139" lon="4.458177880126">
        <ele>0</ele>
        <time>2019-08-05T20:49:29Z</time>
      </trkpt>
      <trkpt lat="51.229473581902" lon="4.458068161055">
        <ele>2</ele>
        <time>2019-08-05T20:50:10Z</time>
      </trkpt>
      <trkpt lat="51.229778515424" lon="4.458055336748">
        <ele>0</ele>
        <time>2019-08-05T20:50:52Z</time>
      </trkpt>
      <trkpt lat="51.229706179627" lon="4.458018540207">
        <ele>0</ele>
        <time>2019-08-05T20:51:13Z</time>
      </trkpt>
    </trkseg>
  </trk>
</gpx>